sensor_id;sensor_type;location;lat;lon;timestamp;temperature;humidity
11126;DHT22;5617;54.046;10.676;2023-06-04T00:01:57;10.20;94.20
11126;DHT22;5617;54.046;10.676;2023-06-04T00:04:14;10.20;94.30
11126;DHT22;5617;54.046;10.676;2023-06-04T00:06:33;10.20;94.30
11126;DHT22;5617;54.046;10.676;2023-06-04T00:08:51;10.20;94.40
11126;DHT22;5617;54.046;10.676;2023-06-04T00:11:07;10.20;94.40
11126;DHT22;5617;54.046;10.676;2023-06-04T00:13:23;10.10;94.50
11126;DHT22;5617;54.046;10.676;2023-06-04T00:15:40;10.10;94.60
11126;DHT22;5617;54.046;10.676;2023-06-04T00:17:59;10.10;94.60
11126;DHT22;5617;54.046;10.676;2023-06-04T00:20:16;10.10;94.70
11126;DHT22;5617;54.046;10.676;2023-06-04T00:22:32;10.10;94.80
11126;DHT22;5617;54.046;10.676;2023-06-04T00:24:50;10.10;94.80
11126;DHT22;5617;54.046;10.676;2023-06-04T00:27:07;10.00;94.90
11126;DHT22;5617;54.046;10.676;2023-06-04T00:29:23;10.00;94.90
11126;DHT22;5617;54.046;10.676;2023-06-04T00:31:43;10.00;95.00
11126;DHT22;5617;54.046;10.676;2023-06-04T00:34:01;9.90;95.00
11126;DHT22;5617;54.046;10.676;2023-06-04T00:36:18;9.90;95.10
11126;DHT22;5617;54.046;10.676;2023-06-04T00:38:34;9.90;95.10
11126;DHT22;5617;54.046;10.676;2023-06-04T00:40:52;9.80;95.20
11126;DHT22;5617;54.046;10.676;2023-06-04T00:43:14;9.80;95.20
11126;DHT22;5617;54.046;10.676;2023-06-04T00:45:31;9.70;95.30
11126;DHT22;5617;54.046;10.676;2023-06-04T00:47:55;9.70;95.30
11126;DHT22;5617;54.046;10.676;2023-06-04T00:50:13;9.70;95.30
11126;DHT22;5617;54.046;10.676;2023-06-04T00:52:30;9.70;95.40
11126;DHT22;5617;54.046;10.676;2023-06-04T00:54:46;9.70;95.50
11126;DHT22;5617;54.046;10.676;2023-06-04T00:57:04;9.70;95.50
11126;DHT22;5617;54.046;10.676;2023-06-04T00:59:22;9.60;95.60
11126;DHT22;5617;54.046;10.676;2023-06-04T01:01:43;9.60;95.60
11126;DHT22;5617;54.046;10.676;2023-06-04T01:04:04;9.50;95.60
11126;DHT22;5617;54.046;10.676;2023-06-04T01:06:33;9.50;95.70
11126;DHT22;5617;54.046;10.676;2023-06-04T01:08:52;9.40;95.70
11126;DHT22;5617;54.046;10.676;2023-06-04T01:11:10;9.30;95.80
11126;DHT22;5617;54.046;10.676;2023-06-04T01:13:26;9.10;95.90
11126;DHT22;5617;54.046;10.676;2023-06-04T01:15:43;9.00;96.10
11126;DHT22;5617;54.046;10.676;2023-06-04T01:18:00;8.90;96.20
11126;DHT22;5617;54.046;10.676;2023-06-04T01:20:25;8.80;96.50
11126;DHT22;5617;54.046;10.676;2023-06-04T01:22:59;8.70;96.70
11126;DHT22;5617;54.046;10.676;2023-06-04T01:25:22;8.60;96.70
11126;DHT22;5617;54.046;10.676;2023-06-04T01:27:41;8.60;96.70
11126;DHT22;5617;54.046;10.676;2023-06-04T01:30:00;8.50;96.70
11126;DHT22;5617;54.046;10.676;2023-06-04T01:32:19;8.50;96.60
11126;DHT22;5617;54.046;10.676;2023-06-04T01:34:50;8.50;96.60
11126;DHT22;5617;54.046;10.676;2023-06-04T01:37:08;8.60;96.70
11126;DHT22;5617;54.046;10.676;2023-06-04T01:39:28;8.50;96.50
11126;DHT22;5617;54.046;10.676;2023-06-04T01:41:46;8.50;96.60
11126;DHT22;5617;54.046;10.676;2023-06-04T01:44:03;8.50;96.50
11126;DHT22;5617;54.046;10.676;2023-06-04T01:46:19;8.50;96.50
11126;DHT22;5617;54.046;10.676;2023-06-04T01:48:36;8.60;96.50
11126;DHT22;5617;54.046;10.676;2023-06-04T01:50:54;8.60;96.60
11126;DHT22;5617;54.046;10.676;2023-06-04T01:53:11;8.50;96.60
11126;DHT22;5617;54.046;10.676;2023-06-04T01:55:29;8.50;96.60
11126;DHT22;5617;54.046;10.676;2023-06-04T01:57:48;8.60;96.70
11126;DHT22;5617;54.046;10.676;2023-06-04T02:00:08;8.60;96.70
11126;DHT22;5617;54.046;10.676;2023-06-04T02:02:26;8.50;96.70
11126;DHT22;5617;54.046;10.676;2023-06-04T02:04:43;8.60;96.70
11126;DHT22;5617;54.046;10.676;2023-06-04T02:07:00;8.60;96.70
11126;DHT22;5617;54.046;10.676;2023-06-04T02:09:17;8.60;96.80
11126;DHT22;5617;54.046;10.676;2023-06-04T02:11:35;8.60;96.80
11126;DHT22;5617;54.046;10.676;2023-06-04T02:13:52;8.50;96.90
11126;DHT22;5617;54.046;10.676;2023-06-04T02:16:09;8.50;96.90
11126;DHT22;5617;54.046;10.676;2023-06-04T02:18:26;8.50;97.00
11126;DHT22;5617;54.046;10.676;2023-06-04T02:20:43;8.50;97.00
11126;DHT22;5617;54.046;10.676;2023-06-04T02:23:00;8.40;97.10
11126;DHT22;5617;54.046;10.676;2023-06-04T02:25:17;8.40;97.10
11126;DHT22;5617;54.046;10.676;2023-06-04T02:27:35;8.50;97.20
11126;DHT22;5617;54.046;10.676;2023-06-04T02:29:53;8.50;97.20
11126;DHT22;5617;54.046;10.676;2023-06-04T02:32:09;8.50;97.20
11126;DHT22;5617;54.046;10.676;2023-06-04T02:34:26;8.40;97.30
11126;DHT22;5617;54.046;10.676;2023-06-04T02:36:42;8.40;97.30
11126;DHT22;5617;54.046;10.676;2023-06-04T02:39:08;8.40;97.40
11126;DHT22;5617;54.046;10.676;2023-06-04T02:41:25;8.40;97.40
11126;DHT22;5617;54.046;10.676;2023-06-04T02:43:33;8.40;97.40
11126;DHT22;5617;54.046;10.676;2023-06-04T02:45:49;8.40;97.40
11126;DHT22;5617;54.046;10.676;2023-06-04T02:48:08;8.30;97.60
11126;DHT22;5617;54.046;10.676;2023-06-04T02:50:24;8.20;97.60
11126;DHT22;5617;54.046;10.676;2023-06-04T02:52:42;8.20;97.70
11126;DHT22;5617;54.046;10.676;2023-06-04T02:54:59;8.20;97.80
11126;DHT22;5617;54.046;10.676;2023-06-04T02:57:19;8.10;97.90
11126;DHT22;5617;54.046;10.676;2023-06-04T02:59:37;8.10;97.90
11126;DHT22;5617;54.046;10.676;2023-06-04T03:01:53;8.10;98.00
11126;DHT22;5617;54.046;10.676;2023-06-04T03:04:10;8.10;98.10
11126;DHT22;5617;54.046;10.676;2023-06-04T03:06:29;8.00;98.10
11126;DHT22;5617;54.046;10.676;2023-06-04T03:08:46;8.00;98.20
11126;DHT22;5617;54.046;10.676;2023-06-04T03:11:03;7.90;98.30
11126;DHT22;5617;54.046;10.676;2023-06-04T03:13:20;7.90;98.30
11126;DHT22;5617;54.046;10.676;2023-06-04T03:15:37;7.90;98.30
11126;DHT22;5617;54.046;10.676;2023-06-04T03:17:54;7.80;98.40
11126;DHT22;5617;54.046;10.676;2023-06-04T03:20:12;7.80;98.50
11126;DHT22;5617;54.046;10.676;2023-06-04T03:22:29;7.80;98.50
11126;DHT22;5617;54.046;10.676;2023-06-04T03:24:47;7.80;98.50
11126;DHT22;5617;54.046;10.676;2023-06-04T03:27:05;7.80;98.50
11126;DHT22;5617;54.046;10.676;2023-06-04T03:29:23;7.80;98.50
11126;DHT22;5617;54.046;10.676;2023-06-04T03:31:41;7.90;98.60
11126;DHT22;5617;54.046;10.676;2023-06-04T03:34:02;7.90;98.70
11126;DHT22;5617;54.046;10.676;2023-06-04T03:36:18;7.90;98.60
11126;DHT22;5617;54.046;10.676;2023-06-04T03:38:37;8.00;98.70
11126;DHT22;5617;54.046;10.676;2023-06-04T03:40:56;8.00;98.70
11126;DHT22;5617;54.046;10.676;2023-06-04T03:43:13;8.00;98.70
11126;DHT22;5617;54.046;10.676;2023-06-04T03:45:33;8.10;98.80
11126;DHT22;5617;54.046;10.676;2023-06-04T03:47:52;8.10;98.80
11126;DHT22;5617;54.046;10.676;2023-06-04T03:50:09;8.20;98.90
11126;DHT22;5617;54.046;10.676;2023-06-04T03:52:26;8.20;98.90
11126;DHT22;5617;54.046;10.676;2023-06-04T03:54:42;8.20;98.90
11126;DHT22;5617;54.046;10.676;2023-06-04T03:56:58;8.30;99.00
11126;DHT22;5617;54.046;10.676;2023-06-04T03:59:15;8.40;99.40
11126;DHT22;5617;54.046;10.676;2023-06-04T04:01:32;8.40;99.10
11126;DHT22;5617;54.046;10.676;2023-06-04T04:03:50;8.50;99.10
11126;DHT22;5617;54.046;10.676;2023-06-04T04:06:07;8.60;99.10
11126;DHT22;5617;54.046;10.676;2023-06-04T04:08:25;8.60;99.10
11126;DHT22;5617;54.046;10.676;2023-06-04T04:10:46;8.70;99.20
11126;DHT22;5617;54.046;10.676;2023-06-04T04:13:03;8.80;99.20
11126;DHT22;5617;54.046;10.676;2023-06-04T04:15:20;8.90;99.30
11126;DHT22;5617;54.046;10.676;2023-06-04T04:17:37;8.90;99.30
11126;DHT22;5617;54.046;10.676;2023-06-04T04:19:56;9.00;99.40
11126;DHT22;5617;54.046;10.676;2023-06-04T04:22:13;9.10;99.50
11126;DHT22;5617;54.046;10.676;2023-06-04T04:24:32;9.20;99.60
11126;DHT22;5617;54.046;10.676;2023-06-04T04:26:52;9.20;99.60
11126;DHT22;5617;54.046;10.676;2023-06-04T04:29:09;9.40;99.70
11126;DHT22;5617;54.046;10.676;2023-06-04T04:31:26;9.80;99.90
11126;DHT22;5617;54.046;10.676;2023-06-04T04:33:43;10.30;99.90
11126;DHT22;5617;54.046;10.676;2023-06-04T04:36:01;10.80;99.90
11126;DHT22;5617;54.046;10.676;2023-06-04T04:38:17;11.40;99.90
11126;DHT22;5617;54.046;10.676;2023-06-04T04:40:34;11.80;99.90
11126;DHT22;5617;54.046;10.676;2023-06-04T04:42:51;12.20;99.90
11126;DHT22;5617;54.046;10.676;2023-06-04T04:45:09;12.40;99.90
11126;DHT22;5617;54.046;10.676;2023-06-04T04:47:29;12.60;99.90
11126;DHT22;5617;54.046;10.676;2023-06-04T04:49:46;12.70;99.90
11126;DHT22;5617;54.046;10.676;2023-06-04T04:52:05;12.80;99.90
11126;DHT22;5617;54.046;10.676;2023-06-04T04:54:22;12.80;99.90
11126;DHT22;5617;54.046;10.676;2023-06-04T04:56:39;12.90;99.90
11126;DHT22;5617;54.046;10.676;2023-06-04T04:59:04;12.90;99.90
11126;DHT22;5617;54.046;10.676;2023-06-04T05:01:21;12.80;99.90
11126;DHT22;5617;54.046;10.676;2023-06-04T05:03:39;12.80;99.90
11126;DHT22;5617;54.046;10.676;2023-06-04T05:05:56;12.80;99.90
11126;DHT22;5617;54.046;10.676;2023-06-04T05:08:14;12.80;99.80
11126;DHT22;5617;54.046;10.676;2023-06-04T05:10:30;12.70;99.70
11126;DHT22;5617;54.046;10.676;2023-06-04T05:12:57;12.70;99.60
11126;DHT22;5617;54.046;10.676;2023-06-04T05:15:15;12.70;99.50
11126;DHT22;5617;54.046;10.676;2023-06-04T05:17:34;12.70;99.50
11126;DHT22;5617;54.046;10.676;2023-06-04T05:19:51;12.70;99.50
11126;DHT22;5617;54.046;10.676;2023-06-04T05:22:08;12.80;99.50
11126;DHT22;5617;54.046;10.676;2023-06-04T05:24:27;12.80;99.50
11126;DHT22;5617;54.046;10.676;2023-06-04T05:26:44;12.90;99.50
11126;DHT22;5617;54.046;10.676;2023-06-04T05:29:01;13.00;99.40
11126;DHT22;5617;54.046;10.676;2023-06-04T05:31:19;13.10;99.40
11126;DHT22;5617;54.046;10.676;2023-06-04T05:33:36;13.10;99.60
11126;DHT22;5617;54.046;10.676;2023-06-04T05:35:53;13.20;99.60
11126;DHT22;5617;54.046;10.676;2023-06-04T05:38:13;13.30;99.60
11126;DHT22;5617;54.046;10.676;2023-06-04T05:40:45;13.40;99.60
11126;DHT22;5617;54.046;10.676;2023-06-04T05:43:09;13.40;99.90
11126;DHT22;5617;54.046;10.676;2023-06-04T05:45:26;13.50;99.90
11126;DHT22;5617;54.046;10.676;2023-06-04T05:47:50;13.60;99.90
11126;DHT22;5617;54.046;10.676;2023-06-04T05:50:10;13.70;99.90
11126;DHT22;5617;54.046;10.676;2023-06-04T05:52:27;13.80;99.90
11126;DHT22;5617;54.046;10.676;2023-06-04T05:54:43;13.90;99.90
11126;DHT22;5617;54.046;10.676;2023-06-04T05:57:02;14.10;99.90
11126;DHT22;5617;54.046;10.676;2023-06-04T05:59:19;14.10;99.90
11126;DHT22;5617;54.046;10.676;2023-06-04T06:01:36;14.30;99.90
11126;DHT22;5617;54.046;10.676;2023-06-04T06:03:54;14.40;99.90
11126;DHT22;5617;54.046;10.676;2023-06-04T06:06:11;14.60;99.90
11126;DHT22;5617;54.046;10.676;2023-06-04T06:08:30;14.70;99.80
11126;DHT22;5617;54.046;10.676;2023-06-04T06:10:47;14.80;99.80
11126;DHT22;5617;54.046;10.676;2023-06-04T06:13:05;15.00;99.80
11126;DHT22;5617;54.046;10.676;2023-06-04T06:15:22;15.10;99.70
11126;DHT22;5617;54.046;10.676;2023-06-04T06:17:41;15.30;99.50
11126;DHT22;5617;54.046;10.676;2023-06-04T06:19:58;15.40;99.40
11126;DHT22;5617;54.046;10.676;2023-06-04T06:22:16;15.50;99.30
11126;DHT22;5617;54.046;10.676;2023-06-04T06:24:33;15.60;99.30
11126;DHT22;5617;54.046;10.676;2023-06-04T06:26:51;15.80;99.20
11126;DHT22;5617;54.046;10.676;2023-06-04T06:29:10;15.90;99.00
11126;DHT22;5617;54.046;10.676;2023-06-04T06:31:31;16.10;98.80
11126;DHT22;5617;54.046;10.676;2023-06-04T06:33:48;16.20;98.50
11126;DHT22;5617;54.046;10.676;2023-06-04T06:36:06;16.30;98.30
11126;DHT22;5617;54.046;10.676;2023-06-04T06:38:28;16.50;98.10
11126;DHT22;5617;54.046;10.676;2023-06-04T06:40:45;16.60;97.90
11126;DHT22;5617;54.046;10.676;2023-06-04T06:43:03;16.60;97.60
11126;DHT22;5617;54.046;10.676;2023-06-04T06:45:22;16.70;97.50
11126;DHT22;5617;54.046;10.676;2023-06-04T06:47:44;16.80;97.10
11126;DHT22;5617;54.046;10.676;2023-06-04T06:50:02;16.90;96.90
11126;DHT22;5617;54.046;10.676;2023-06-04T06:52:20;17.20;96.50
11126;DHT22;5617;54.046;10.676;2023-06-04T06:54:40;17.30;96.10
11126;DHT22;5617;54.046;10.676;2023-06-04T06:56:57;17.40;95.70
11126;DHT22;5617;54.046;10.676;2023-06-04T06:59:15;17.50;95.60
11126;DHT22;5617;54.046;10.676;2023-06-04T07:01:33;17.70;95.40
11126;DHT22;5617;54.046;10.676;2023-06-04T07:03:50;17.80;94.80
11126;DHT22;5617;54.046;10.676;2023-06-04T07:06:08;18.00;94.40
11126;DHT22;5617;54.046;10.676;2023-06-04T07:08:25;18.10;94.10
11126;DHT22;5617;54.046;10.676;2023-06-04T07:10:42;18.20;94.00
11126;DHT22;5617;54.046;10.676;2023-06-04T07:13:05;18.40;93.70
11126;DHT22;5617;54.046;10.676;2023-06-04T07:15:23;18.50;93.30
11126;DHT22;5617;54.046;10.676;2023-06-04T07:17:41;18.60;92.90
11126;DHT22;5617;54.046;10.676;2023-06-04T07:19:59;18.70;92.50
11126;DHT22;5617;54.046;10.676;2023-06-04T07:22:17;18.80;91.80
11126;DHT22;5617;54.046;10.676;2023-06-04T07:24:35;18.90;91.70
11126;DHT22;5617;54.046;10.676;2023-06-04T07:26:52;19.00;91.30
11126;DHT22;5617;54.046;10.676;2023-06-04T07:29:09;19.20;91.00
11126;DHT22;5617;54.046;10.676;2023-06-04T07:31:26;19.40;90.40
11126;DHT22;5617;54.046;10.676;2023-06-04T07:33:45;19.40;90.30
11126;DHT22;5617;54.046;10.676;2023-06-04T07:36:02;19.60;90.20
11126;DHT22;5617;54.046;10.676;2023-06-04T07:38:22;19.70;89.40
11126;DHT22;5617;54.046;10.676;2023-06-04T07:40:39;19.70;88.10
11126;DHT22;5617;54.046;10.676;2023-06-04T07:42:56;19.80;87.90
11126;DHT22;5617;54.046;10.676;2023-06-04T07:45:15;19.90;86.50
11126;DHT22;5617;54.046;10.676;2023-06-04T07:47:36;20.00;86.70
11126;DHT22;5617;54.046;10.676;2023-06-04T07:49:54;20.10;86.70
11126;DHT22;5617;54.046;10.676;2023-06-04T07:52:13;20.10;85.40
11126;DHT22;5617;54.046;10.676;2023-06-04T07:54:32;19.90;85.40
11126;DHT22;5617;54.046;10.676;2023-06-04T07:56:50;20.00;86.00
11126;DHT22;5617;54.046;10.676;2023-06-04T07:59:11;20.20;84.30
11126;DHT22;5617;54.046;10.676;2023-06-04T08:01:29;20.40;83.70
11126;DHT22;5617;54.046;10.676;2023-06-04T08:03:46;20.70;82.70
11126;DHT22;5617;54.046;10.676;2023-06-04T08:06:05;20.70;81.50
11126;DHT22;5617;54.046;10.676;2023-06-04T08:08:22;20.90;80.30
11126;DHT22;5617;54.046;10.676;2023-06-04T08:10:39;21.00;80.00
11126;DHT22;5617;54.046;10.676;2023-06-04T08:12:56;21.10;79.50
11126;DHT22;5617;54.046;10.676;2023-06-04T08:15:15;21.20;79.30
11126;DHT22;5617;54.046;10.676;2023-06-04T08:17:32;21.20;78.80
11126;DHT22;5617;54.046;10.676;2023-06-04T08:19:49;21.20;78.70
11126;DHT22;5617;54.046;10.676;2023-06-04T08:22:08;21.20;79.30
11126;DHT22;5617;54.046;10.676;2023-06-04T08:24:27;21.30;79.00
11126;DHT22;5617;54.046;10.676;2023-06-04T08:26:44;21.40;77.80
11126;DHT22;5617;54.046;10.676;2023-06-04T08:29:02;21.40;77.20
11126;DHT22;5617;54.046;10.676;2023-06-04T08:31:19;21.40;77.80
11126;DHT22;5617;54.046;10.676;2023-06-04T08:33:39;21.50;78.50
11126;DHT22;5617;54.046;10.676;2023-06-04T08:35:56;21.60;78.60
11126;DHT22;5617;54.046;10.676;2023-06-04T08:38:15;21.70;77.80
11126;DHT22;5617;54.046;10.676;2023-06-04T08:40:32;22.00;77.10
11126;DHT22;5617;54.046;10.676;2023-06-04T08:42:51;22.00;76.90
11126;DHT22;5617;54.046;10.676;2023-06-04T08:45:17;22.20;76.50
11126;DHT22;5617;54.046;10.676;2023-06-04T08:47:37;22.40;76.50
11126;DHT22;5617;54.046;10.676;2023-06-04T08:50:00;22.50;75.20
11126;DHT22;5617;54.046;10.676;2023-06-04T08:52:18;22.50;73.20
11126;DHT22;5617;54.046;10.676;2023-06-04T08:54:38;22.50;72.10
11126;DHT22;5617;54.046;10.676;2023-06-04T08:56:56;22.40;71.40
11126;DHT22;5617;54.046;10.676;2023-06-04T08:59:14;22.50;72.00
11126;DHT22;5617;54.046;10.676;2023-06-04T09:01:32;22.70;70.80
11126;DHT22;5617;54.046;10.676;2023-06-04T09:03:49;22.80;69.80
11126;DHT22;5617;54.046;10.676;2023-06-04T09:06:07;23.00;67.90
11126;DHT22;5617;54.046;10.676;2023-06-04T09:08:26;22.90;67.60
11126;DHT22;5617;54.046;10.676;2023-06-04T09:10:47;23.00;67.60
11126;DHT22;5617;54.046;10.676;2023-06-04T09:13:08;23.00;67.10
11126;DHT22;5617;54.046;10.676;2023-06-04T09:15:26;23.00;67.10
11126;DHT22;5617;54.046;10.676;2023-06-04T09:17:43;23.20;66.60
11126;DHT22;5617;54.046;10.676;2023-06-04T09:20:01;23.30;66.50
11126;DHT22;5617;54.046;10.676;2023-06-04T09:22:19;23.20;67.40
11126;DHT22;5617;54.046;10.676;2023-06-04T09:24:39;23.20;66.70
11126;DHT22;5617;54.046;10.676;2023-06-04T09:27:09;23.40;65.50
11126;DHT22;5617;54.046;10.676;2023-06-04T09:29:26;23.40;64.60
11126;DHT22;5617;54.046;10.676;2023-06-04T09:31:45;23.50;63.90
11126;DHT22;5617;54.046;10.676;2023-06-04T09:34:03;23.40;64.00
11126;DHT22;5617;54.046;10.676;2023-06-04T09:36:21;23.50;63.60
11126;DHT22;5617;54.046;10.676;2023-06-04T09:38:38;23.40;64.20
11126;DHT22;5617;54.046;10.676;2023-06-04T09:40:55;23.60;64.60
11126;DHT22;5617;54.046;10.676;2023-06-04T09:43:22;23.80;64.70
11126;DHT22;5617;54.046;10.676;2023-06-04T09:45:39;23.90;64.20
11126;DHT22;5617;54.046;10.676;2023-06-04T09:47:58;23.80;63.90
11126;DHT22;5617;54.046;10.676;2023-06-04T09:50:25;23.80;61.90
11126;DHT22;5617;54.046;10.676;2023-06-04T09:52:42;23.70;60.20
11126;DHT22;5617;54.046;10.676;2023-06-04T09:55:00;23.70;59.50
11126;DHT22;5617;54.046;10.676;2023-06-04T09:57:18;23.70;60.10
11126;DHT22;5617;54.046;10.676;2023-06-04T09:59:39;23.70;58.80
11126;DHT22;5617;54.046;10.676;2023-06-04T10:01:58;23.70;59.40
11126;DHT22;5617;54.046;10.676;2023-06-04T10:04:16;23.60;58.50
11126;DHT22;5617;54.046;10.676;2023-06-04T10:06:34;23.90;58.60
11126;DHT22;5617;54.046;10.676;2023-06-04T10:08:53;24.00;58.00
11126;DHT22;5617;54.046;10.676;2023-06-04T10:11:13;24.20;57.50
11126;DHT22;5617;54.046;10.676;2023-06-04T10:13:38;24.00;57.20
11126;DHT22;5617;54.046;10.676;2023-06-04T10:16:00;23.80;56.80
11126;DHT22;5617;54.046;10.676;2023-06-04T10:18:28;23.80;56.70
11126;DHT22;5617;54.046;10.676;2023-06-04T10:20:46;23.90;56.80
11126;DHT22;5617;54.046;10.676;2023-06-04T10:23:04;23.90;56.80
11126;DHT22;5617;54.046;10.676;2023-06-04T10:25:29;24.10;57.00
11126;DHT22;5617;54.046;10.676;2023-06-04T10:27:46;24.20;57.10
11126;DHT22;5617;54.046;10.676;2023-06-04T10:30:05;24.20;57.80
11126;DHT22;5617;54.046;10.676;2023-06-04T10:32:26;24.30;58.10
11126;DHT22;5617;54.046;10.676;2023-06-04T10:34:44;24.30;57.30
11126;DHT22;5617;54.046;10.676;2023-06-04T10:37:01;24.30;57.10
11126;DHT22;5617;54.046;10.676;2023-06-04T10:39:25;24.60;57.70
11126;DHT22;5617;54.046;10.676;2023-06-04T10:41:43;24.80;57.00
11126;DHT22;5617;54.046;10.676;2023-06-04T10:44:01;24.90;56.80
11126;DHT22;5617;54.046;10.676;2023-06-04T10:46:19;25.00;56.50
11126;DHT22;5617;54.046;10.676;2023-06-04T10:48:46;25.00;56.80
11126;DHT22;5617;54.046;10.676;2023-06-04T10:51:04;25.10;56.80
11126;DHT22;5617;54.046;10.676;2023-06-04T10:53:12;25.20;56.80
11126;DHT22;5617;54.046;10.676;2023-06-04T10:55:19;25.20;56.20
11126;DHT22;5617;54.046;10.676;2023-06-04T10:57:36;25.20;56.30
11126;DHT22;5617;54.046;10.676;2023-06-04T10:59:53;25.30;55.50
11126;DHT22;5617;54.046;10.676;2023-06-04T11:02:05;25.30;54.70
11126;DHT22;5617;54.046;10.676;2023-06-04T11:04:22;25.20;54.40
11126;DHT22;5617;54.046;10.676;2023-06-04T11:06:30;25.30;54.60
11126;DHT22;5617;54.046;10.676;2023-06-04T11:08:39;25.40;54.70
11126;DHT22;5617;54.046;10.676;2023-06-04T11:10:47;25.60;55.60
11126;DHT22;5617;54.046;10.676;2023-06-04T11:12:55;25.60;54.40
11126;DHT22;5617;54.046;10.676;2023-06-04T11:15:05;25.60;54.00
11126;DHT22;5617;54.046;10.676;2023-06-04T11:17:14;25.60;54.60
11126;DHT22;5617;54.046;10.676;2023-06-04T11:19:24;25.40;55.20
11126;DHT22;5617;54.046;10.676;2023-06-04T11:21:42;25.50;55.10
11126;DHT22;5617;54.046;10.676;2023-06-04T11:23:55;25.40;55.10
11126;DHT22;5617;54.046;10.676;2023-06-04T11:26:03;25.60;55.10
11126;DHT22;5617;54.046;10.676;2023-06-04T11:28:15;25.90;55.30
11126;DHT22;5617;54.046;10.676;2023-06-04T11:30:24;26.00;54.50
11126;DHT22;5617;54.046;10.676;2023-06-04T11:32:31;26.00;54.40
11126;DHT22;5617;54.046;10.676;2023-06-04T11:34:40;26.00;55.20
11126;DHT22;5617;54.046;10.676;2023-06-04T11:36:48;26.10;56.50
11126;DHT22;5617;54.046;10.676;2023-06-04T11:39:00;26.20;57.60
11126;DHT22;5617;54.046;10.676;2023-06-04T11:41:10;26.20;58.10
11126;DHT22;5617;54.046;10.676;2023-06-04T11:43:17;26.20;58.90
11126;DHT22;5617;54.046;10.676;2023-06-04T11:45:27;26.20;60.00
11126;DHT22;5617;54.046;10.676;2023-06-04T11:47:36;26.20;60.70
11126;DHT22;5617;54.046;10.676;2023-06-04T11:49:47;26.20;62.40
11126;DHT22;5617;54.046;10.676;2023-06-04T11:51:55;26.20;63.30
11126;DHT22;5617;54.046;10.676;2023-06-04T11:54:03;26.30;63.20
11126;DHT22;5617;54.046;10.676;2023-06-04T11:56:11;26.20;63.40
11126;DHT22;5617;54.046;10.676;2023-06-04T11:58:18;26.00;64.10
11126;DHT22;5617;54.046;10.676;2023-06-04T12:00:26;26.00;64.30
11126;DHT22;5617;54.046;10.676;2023-06-04T12:02:35;26.00;64.60
11126;DHT22;5617;54.046;10.676;2023-06-04T12:04:43;26.20;64.90
11126;DHT22;5617;54.046;10.676;2023-06-04T12:06:54;26.30;64.70
11126;DHT22;5617;54.046;10.676;2023-06-04T12:09:03;26.20;64.30
11126;DHT22;5617;54.046;10.676;2023-06-04T12:11:27;26.20;63.70
11126;DHT22;5617;54.046;10.676;2023-06-04T12:13:41;26.10;63.80
11126;DHT22;5617;54.046;10.676;2023-06-04T12:15:51;26.10;64.00
11126;DHT22;5617;54.046;10.676;2023-06-04T12:17:59;26.10;64.10
11126;DHT22;5617;54.046;10.676;2023-06-04T12:20:08;26.10;64.30
11126;DHT22;5617;54.046;10.676;2023-06-04T12:22:19;26.00;63.50
11126;DHT22;5617;54.046;10.676;2023-06-04T12:24:28;25.80;64.10
11126;DHT22;5617;54.046;10.676;2023-06-04T12:26:37;25.80;64.50
11126;DHT22;5617;54.046;10.676;2023-06-04T12:28:58;25.60;64.30
11126;DHT22;5617;54.046;10.676;2023-06-04T12:31:15;25.60;64.60
11126;DHT22;5617;54.046;10.676;2023-06-04T12:33:23;25.60;64.80
11126;DHT22;5617;54.046;10.676;2023-06-04T12:35:30;25.50;64.40
11126;DHT22;5617;54.046;10.676;2023-06-04T12:37:40;25.60;64.80
11126;DHT22;5617;54.046;10.676;2023-06-04T12:39:47;25.50;64.70
11126;DHT22;5617;54.046;10.676;2023-06-04T12:41:55;25.50;65.00
11126;DHT22;5617;54.046;10.676;2023-06-04T12:44:03;25.50;65.50
11126;DHT22;5617;54.046;10.676;2023-06-04T12:46:10;25.70;65.30
11126;DHT22;5617;54.046;10.676;2023-06-04T12:48:20;25.70;65.50
11126;DHT22;5617;54.046;10.676;2023-06-04T12:50:28;25.80;65.80
11126;DHT22;5617;54.046;10.676;2023-06-04T12:52:36;25.90;65.50
11126;DHT22;5617;54.046;10.676;2023-06-04T12:54:45;25.90;65.20
11126;DHT22;5617;54.046;10.676;2023-06-04T12:56:53;25.80;64.90
11126;DHT22;5617;54.046;10.676;2023-06-04T12:59:03;25.70;65.20
11126;DHT22;5617;54.046;10.676;2023-06-04T13:01:11;25.70;65.80
11126;DHT22;5617;54.046;10.676;2023-06-04T13:03:19;25.60;66.40
11126;DHT22;5617;54.046;10.676;2023-06-04T13:05:27;25.60;67.30
11126;DHT22;5617;54.046;10.676;2023-06-04T13:07:35;25.50;67.00
11126;DHT22;5617;54.046;10.676;2023-06-04T13:09:45;25.30;67.30
11126;DHT22;5617;54.046;10.676;2023-06-04T13:11:52;25.30;67.50
11126;DHT22;5617;54.046;10.676;2023-06-04T13:14:00;25.30;67.70
11126;DHT22;5617;54.046;10.676;2023-06-04T13:16:07;25.30;68.00
11126;DHT22;5617;54.046;10.676;2023-06-04T13:18:15;25.30;68.30
11126;DHT22;5617;54.046;10.676;2023-06-04T13:20:23;25.20;68.60
11126;DHT22;5617;54.046;10.676;2023-06-04T13:22:30;25.20;68.30
11126;DHT22;5617;54.046;10.676;2023-06-04T13:24:38;25.00;68.20
11126;DHT22;5617;54.046;10.676;2023-06-04T13:26:47;24.80;68.90
11126;DHT22;5617;54.046;10.676;2023-06-04T13:28:55;24.70;70.10
11126;DHT22;5617;54.046;10.676;2023-06-04T13:31:02;24.80;70.20
11126;DHT22;5617;54.046;10.676;2023-06-04T13:33:10;24.90;70.00
11126;DHT22;5617;54.046;10.676;2023-06-04T13:35:17;24.90;69.80
11126;DHT22;5617;54.046;10.676;2023-06-04T13:37:25;24.90;70.10
11126;DHT22;5617;54.046;10.676;2023-06-04T13:39:33;24.80;70.10
11126;DHT22;5617;54.046;10.676;2023-06-04T13:41:41;24.80;70.50
11126;DHT22;5617;54.046;10.676;2023-06-04T13:43:51;24.80;69.90
11126;DHT22;5617;54.046;10.676;2023-06-04T13:45:58;24.80;70.30
11126;DHT22;5617;54.046;10.676;2023-06-04T13:48:06;25.00;69.50
11126;DHT22;5617;54.046;10.676;2023-06-04T13:50:14;24.90;69.40
11126;DHT22;5617;54.046;10.676;2023-06-04T13:52:21;24.90;70.30
11126;DHT22;5617;54.046;10.676;2023-06-04T13:54:29;24.90;69.60
11126;DHT22;5617;54.046;10.676;2023-06-04T13:56:37;24.80;69.70
11126;DHT22;5617;54.046;10.676;2023-06-04T13:58:45;24.70;69.90
11126;DHT22;5617;54.046;10.676;2023-06-04T14:00:54;24.80;70.00
11126;DHT22;5617;54.046;10.676;2023-06-04T14:03:02;24.80;69.40
11126;DHT22;5617;54.046;10.676;2023-06-04T14:05:10;24.80;69.50
11126;DHT22;5617;54.046;10.676;2023-06-04T14:07:18;24.80;69.50
11126;DHT22;5617;54.046;10.676;2023-06-04T14:09:26;24.80;70.00
11126;DHT22;5617;54.046;10.676;2023-06-04T14:11:38;24.80;69.70
11126;DHT22;5617;54.046;10.676;2023-06-04T14:13:46;24.80;69.00
11126;DHT22;5617;54.046;10.676;2023-06-04T14:15:54;24.70;68.70
11126;DHT22;5617;54.046;10.676;2023-06-04T14:18:03;24.80;68.90
11126;DHT22;5617;54.046;10.676;2023-06-04T14:20:11;24.80;69.00
11126;DHT22;5617;54.046;10.676;2023-06-04T14:22:19;24.70;69.10
11126;DHT22;5617;54.046;10.676;2023-06-04T14:24:26;24.50;69.30